createdAt,value
2023-01-29T00:04:45.057Z,1.90
2023-01-29T00:09:48.807Z,1.90
2023-01-29T00:14:52.867Z,1.90
2023-01-29T00:19:57.877Z,1.90
2023-01-29T00:25:01.593Z,1.90
2023-01-29T00:30:13.182Z,1.90
2023-01-29T00:35:18.498Z,1.90
2023-01-29T00:40:22.816Z,1.90
2023-01-29T00:45:26.662Z,1.80
2023-01-29T00:50:32.876Z,1.80
2023-01-29T00:55:36.523Z,1.80
2023-01-29T01:00:40.318Z,1.80
2023-01-29T01:05:46.124Z,1.80
2023-01-29T01:10:59.306Z,1.70
2023-01-29T01:16:03.049Z,1.70
2023-01-29T01:21:08.631Z,1.80
2023-01-29T01:26:12.340Z,1.70
2023-01-29T01:31:16.549Z,1.80
2023-01-29T01:36:21.855Z,1.80
2023-01-29T01:41:25.617Z,1.90
2023-01-29T01:46:30.636Z,1.90
2023-01-29T01:51:38.672Z,1.90
2023-01-29T01:56:46.675Z,1.90
2023-01-29T02:01:55.055Z,1.90
2023-01-29T02:07:19.950Z,1.90
2023-01-29T02:12:24.296Z,1.90
2023-01-29T02:17:28.108Z,1.90
2023-01-29T02:22:55.026Z,2.00
2023-01-29T02:28:11.909Z,2.00
2023-01-29T02:33:25.135Z,2.00
2023-01-29T02:38:37.471Z,2.10
2023-01-29T02:43:47.369Z,2.10
2023-01-29T02:48:58.766Z,2.20
2023-01-29T02:54:08.614Z,2.20
2023-01-29T02:59:18.072Z,2.20
2023-01-29T03:04:25.669Z,2.20
2023-01-29T03:09:35.435Z,2.20
2023-01-29T03:14:56.936Z,2.20
2023-01-29T03:20:02.081Z,2.20
2023-01-29T03:25:26.855Z,2.20
2023-01-29T03:30:52.235Z,2.20
2023-01-29T03:36:11.516Z,2.30
2023-01-29T03:41:24.773Z,2.30
2023-01-29T03:46:36.643Z,2.30
2023-01-29T03:51:51.506Z,2.20
2023-01-29T03:57:01.615Z,2.30
2023-01-29T04:02:10.169Z,2.30
2023-01-29T04:07:17.385Z,2.30
2023-01-29T04:12:26.098Z,2.30
2023-01-29T04:17:40.183Z,2.30
2023-01-29T04:22:53.339Z,2.30
2023-01-29T04:28:06.319Z,2.40
2023-01-29T04:33:29.302Z,2.30
2023-01-29T04:38:43.307Z,2.40
2023-01-29T04:43:57.370Z,2.40
2023-01-29T04:49:13.461Z,2.30
2023-01-29T04:54:23.682Z,2.30
2023-01-29T04:59:32.736Z,2.30
2023-01-29T05:04:40.832Z,2.40
2023-01-29T05:09:47.120Z,2.40
2023-01-29T05:14:51.851Z,2.40
2023-01-29T05:19:58.050Z,2.40
2023-01-29T05:25:01.671Z,2.40
2023-01-29T05:30:06.544Z,2.40
2023-01-29T05:35:11.767Z,2.40
2023-01-29T05:40:15.938Z,2.50
2023-01-29T05:45:20.425Z,2.50
2023-01-29T05:50:26.405Z,2.50
2023-01-29T05:55:30.569Z,2.50
2023-01-29T06:00:34.298Z,2.60
2023-01-29T06:05:40.946Z,2.60
2023-01-29T06:10:44.727Z,2.60
2023-01-29T06:15:48.450Z,2.60
2023-01-29T06:20:53.536Z,2.60
2023-01-29T06:26:01.066Z,2.70
2023-01-29T06:36:31.872Z,2.70
2023-01-29T06:41:36.106Z,2.70
2023-01-29T06:46:39.757Z,2.70
2023-01-29T06:51:44.954Z,2.70
2023-01-29T06:56:48.759Z,2.70
2023-01-29T07:01:52.458Z,2.80
2023-01-29T07:06:57.556Z,2.80
2023-01-29T07:12:01.261Z,2.80
2023-01-29T07:17:05.242Z,2.80
2023-01-29T07:22:10.318Z,2.80
2023-01-29T07:27:13.940Z,2.80
2023-01-29T07:32:17.733Z,2.70
2023-01-29T07:37:22.827Z,2.70
2023-01-29T07:42:26.532Z,2.70
2023-01-29T07:47:30.192Z,2.70
2023-01-29T07:52:35.755Z,2.70
2023-01-29T07:57:39.467Z,2.70
2023-01-29T08:02:43.277Z,2.70
2023-01-29T08:08:05.787Z,2.80
2023-01-29T08:13:10.811Z,2.80
2023-01-29T08:18:15.255Z,2.70
2023-01-29T08:23:20.344Z,2.70
2023-01-29T08:28:24.070Z,2.70
2023-01-29T08:33:38.806Z,2.70
2023-01-29T08:38:44.233Z,2.80
2023-01-29T08:43:47.882Z,2.80
2023-01-29T08:48:51.683Z,2.80
2023-01-29T08:53:56.786Z,2.80
2023-01-29T08:59:00.629Z,2.90
2023-01-29T09:04:04.433Z,2.90
2023-01-29T09:09:09.704Z,2.90
2023-01-29T09:14:14.576Z,3.00
2023-01-29T09:19:18.246Z,3.00
2023-01-29T09:24:23.256Z,3.00
2023-01-29T09:29:26.902Z,2.90
2023-01-29T09:34:30.608Z,3.00
2023-01-29T09:39:35.735Z,3.00
2023-01-29T09:44:53.118Z,3.00
2023-01-29T09:50:00.172Z,3.10
2023-01-29T09:55:06.912Z,3.10
2023-01-29T10:00:16.813Z,3.10
2023-01-29T10:05:46.124Z,3.10
2023-01-29T10:10:59.756Z,3.20
2023-01-29T10:16:22.693Z,3.20
2023-01-29T10:21:39.149Z,3.30
2023-01-29T10:26:45.021Z,3.30
2023-01-29T10:31:53.577Z,3.30
2023-01-29T10:36:57.970Z,3.30
2023-01-29T10:42:15.746Z,3.40
2023-01-29T10:47:40.536Z,3.40
2023-01-29T10:53:00.415Z,3.50
2023-01-29T10:58:15.453Z,3.50
2023-01-29T11:03:28.064Z,3.50
2023-01-29T11:08:39.337Z,3.60
2023-01-29T11:13:49.978Z,3.70
2023-01-29T11:18:57.588Z,3.80
2023-01-29T11:24:09.458Z,3.80
2023-01-29T11:29:38.642Z,3.80
2023-01-29T11:34:59.336Z,3.90
2023-01-29T11:40:03.780Z,4.00
2023-01-29T11:45:27.528Z,4.00
2023-01-29T11:50:33.903Z,4.10
2023-01-29T11:55:50.255Z,4.10
2023-01-29T12:00:57.996Z,4.20
2023-01-29T12:06:04.548Z,4.20
2023-01-29T12:11:14.488Z,4.20
2023-01-29T12:16:26.616Z,4.30
2023-01-29T12:21:36.816Z,4.30
2023-01-29T12:26:45.844Z,4.30
2023-01-29T12:31:58.351Z,4.40
2023-01-29T12:37:11.141Z,4.40
2023-01-29T12:42:19.637Z,4.40
2023-01-29T12:47:29.148Z,4.40
2023-01-29T12:52:40.647Z,4.50
2023-01-29T12:57:48.271Z,4.50
2023-01-29T13:03:00.478Z,4.50
2023-01-29T13:08:08.422Z,4.50
2023-01-29T13:13:17.586Z,4.50
2023-01-29T13:18:44.982Z,4.50
2023-01-29T13:23:50.876Z,4.60
2023-01-29T13:28:54.982Z,4.60
2023-01-29T13:34:15.864Z,4.60
2023-01-29T13:39:24.855Z,4.60
2023-01-29T13:44:32.755Z,4.60
2023-01-29T13:49:40.889Z,4.60
2023-01-29T13:54:53.801Z,4.60
2023-01-29T13:59:58.886Z,4.60
2023-01-29T14:05:41.539Z,4.60
2023-01-29T14:10:45.575Z,4.70
2023-01-29T14:16:33.547Z,4.70
2023-01-29T14:21:39.635Z,4.70
2023-01-29T14:26:46.108Z,4.70
2023-01-29T14:31:53.502Z,4.80
2023-01-29T14:37:03.354Z,4.70
2023-01-29T14:42:19.698Z,4.80
2023-01-29T14:48:02.622Z,4.80
2023-01-29T14:53:14.175Z,4.80
2023-01-29T14:58:23.700Z,4.90
2023-01-29T15:03:37.000Z,4.90
2023-01-29T15:08:46.814Z,4.90
2023-01-29T15:13:56.247Z,4.90
2023-01-29T15:19:15.419Z,4.80
2023-01-29T15:24:20.521Z,4.90
2023-01-29T15:29:27.044Z,4.90
2023-01-29T15:34:30.829Z,4.80
2023-01-29T15:39:44.931Z,4.90
2023-01-29T15:44:48.682Z,4.80
2023-01-29T15:49:53.352Z,4.80
2023-01-29T15:55:02.896Z,4.80
2023-01-29T16:00:10.895Z,4.80
2023-01-29T16:05:17.817Z,4.70
2023-01-29T16:10:25.244Z,4.60
2023-01-29T16:15:31.526Z,4.60
2023-01-29T16:20:40.130Z,4.60
2023-01-29T16:25:45.296Z,4.50
2023-01-29T16:30:55.770Z,4.60
2023-01-29T16:35:59.502Z,4.60
2023-01-29T16:41:15.538Z,4.60
2023-01-29T16:46:24.483Z,4.60
2023-01-29T16:51:30.812Z,4.50
2023-01-29T16:56:37.575Z,4.50
2023-01-29T17:01:41.358Z,4.50
2023-01-29T17:06:48.148Z,4.50
2023-01-29T17:11:58.640Z,4.50
2023-01-29T17:17:04.873Z,4.50
2023-01-29T17:22:14.743Z,4.50
2023-01-29T17:27:21.891Z,4.40
2023-01-29T17:32:44.087Z,4.40
2023-01-29T17:37:48.487Z,4.40
2023-01-29T17:42:53.560Z,4.40
2023-01-29T17:47:57.288Z,4.40
2023-01-29T17:53:01.759Z,4.40
2023-01-29T17:58:06.890Z,4.40
2023-01-29T18:03:10.566Z,4.40
2023-01-29T18:08:17.859Z,4.30
2023-01-29T18:13:22.950Z,4.40
2023-01-29T18:18:26.826Z,4.30
2023-01-29T18:23:31.375Z,4.30
2023-01-29T18:28:36.575Z,4.30
2023-01-29T18:33:40.245Z,4.30
2023-01-29T18:38:43.917Z,4.30
2023-01-29T18:43:49.011Z,4.30
2023-01-29T18:48:52.791Z,4.30
2023-01-29T18:53:56.565Z,4.40
2023-01-29T18:59:01.843Z,4.40
2023-01-29T19:04:05.614Z,4.40
2023-01-29T19:09:09.377Z,4.40
2023-01-29T19:14:14.470Z,4.40
2023-01-29T19:19:18.170Z,4.40
2023-01-29T19:24:22.206Z,4.40
2023-01-29T19:29:27.309Z,4.40
2023-01-29T19:34:30.936Z,4.50
2023-01-29T19:39:34.649Z,4.50
2023-01-29T19:44:39.973Z,4.50
2023-01-29T19:49:44.135Z,4.50
2023-01-29T19:54:48.021Z,4.50
2023-01-29T19:59:54.228Z,4.50
2023-01-29T20:04:58.904Z,4.60
2023-01-29T20:10:03.964Z,4.60
2023-01-29T20:15:11.235Z,4.60
2023-01-29T20:20:16.640Z,4.60
2023-01-29T20:25:20.555Z,4.60
2023-01-29T20:30:25.676Z,4.60
2023-01-29T20:35:31.051Z,4.60
2023-01-29T20:40:34.860Z,4.70
2023-01-29T20:45:41.898Z,4.70
2023-01-29T20:50:45.388Z,4.70
2023-01-29T20:55:49.031Z,4.70
2023-01-29T21:00:54.644Z,4.80
2023-01-29T21:05:59.194Z,4.70
2023-01-29T21:11:03.154Z,4.80
2023-01-29T21:16:10.853Z,4.80
2023-01-29T21:21:14.592Z,4.80
2023-01-29T21:26:18.940Z,4.80
2023-01-29T21:31:24.126Z,4.80
2023-01-29T21:36:27.837Z,4.80
2023-01-29T21:41:45.466Z,4.90
2023-01-29T21:46:50.599Z,4.90
2023-01-29T21:51:54.712Z,4.90
2023-01-29T21:56:58.393Z,5.00
2023-01-29T22:02:03.849Z,5.00
2023-01-29T22:07:07.708Z,5.00
2023-01-29T22:12:11.487Z,5.00
2023-01-29T22:17:17.405Z,5.10
2023-01-29T22:22:21.778Z,5.10
2023-01-29T22:27:25.690Z,5.10
2023-01-29T22:32:33.373Z,5.10
2023-01-29T22:37:37.119Z,5.10
2023-01-29T22:42:40.929Z,5.10
2023-01-29T22:47:46.033Z,5.10
2023-01-29T22:52:54.023Z,5.20
2023-01-29T22:57:58.284Z,5.10
2023-01-29T23:03:04.403Z,5.10
2023-01-29T23:08:08.138Z,5.20
2023-01-29T23:13:11.877Z,5.20
2023-01-29T23:18:16.924Z,5.20
2023-01-29T23:23:20.579Z,5.20
2023-01-29T23:28:24.360Z,5.30
2023-01-29T23:33:29.389Z,5.30
2023-01-29T23:38:33.084Z,5.30
2023-01-29T23:43:36.764Z,5.30
2023-01-29T23:48:41.834Z,5.30
2023-01-29T23:53:45.510Z,5.30
2023-01-29T23:58:49.187Z,5.40
